Time,TemperatureF,DewpointF,PressureIn,WindDirection,WindDirectionDegrees,WindSpeedMPH,WindSpeedGustMPH,Humidity,HourlyPrecipIn,Conditions,Clouds,dailyrainin,SoftwareType,DateUTC
2013-11-15 00:00:00,60.0,50.0,30.16,ENE,70,18.0,21.0,69,-99.99,,,-99.99,,2013-11-15 06:00:00,
2013-11-15 00:43:00,60.0,50.0,30.16,ENE,70,18.0,21.0,69,-99.99,,,-99.99,,2013-11-15 06:43:00,
2013-11-15 00:53:00,60.0,50.0,30.16,ENE,70,18.0,21.0,69,-99.99,,,-99.99,,2013-11-15 06:53:00,
2013-11-15 01:00:00,60.0,50.0,30.13,ENE,70,18.0,21.0,70,-99.99,,,-99.99,,2013-11-15 07:00:00,
2013-11-15 01:42:00,60.0,50.0,30.13,ENE,70,18.0,21.0,70,-99.99,,,-99.99,,2013-11-15 07:42:00,
2013-11-15 01:52:00,60.0,50.0,30.13,ENE,70,18.0,21.0,70,-99.99,,,-99.99,,2013-11-15 07:52:00,
2013-11-15 02:00:00,60.0,51.0,30.12,ENE,60,16.0,17.0,73,-99.99,,,-99.99,,2013-11-15 08:00:00,
2013-11-15 02:42:00,60.0,51.0,30.12,ENE,60,16.0,17.0,73,-99.99,,,-99.99,,2013-11-15 08:42:00,
2013-11-15 02:52:00,60.0,51.0,30.12,ENE,60,16.0,17.0,73,-99.99,,,-99.99,,2013-11-15 08:52:00,
2013-11-15 03:00:00,60.0,52.0,30.11,ENE,70,17.0,21.0,76,-99.99,,,-99.99,,2013-11-15 09:00:00,
2013-11-15 03:43:00,60.0,52.0,30.11,ENE,70,17.0,21.0,76,-99.99,,,-99.99,,2013-11-15 09:43:00,
2013-11-15 03:53:00,60.0,52.0,30.11,ENE,70,17.0,21.0,76,-99.99,,,-99.99,,2013-11-15 09:53:00,
2013-11-15 04:00:00,60.0,54.0,30.11,ENE,60,16.0,18.0,80,-99.99,,,-99.99,,2013-11-15 10:00:00,
2013-11-15 04:42:00,60.0,54.0,30.11,ENE,60,16.0,18.0,80,-99.99,,,-99.99,,2013-11-15 10:42:00,
2013-11-15 04:52:00,60.0,54.0,30.11,ENE,60,16.0,18.0,80,-99.99,,,-99.99,,2013-11-15 10:52:00,
2013-11-15 05:00:00,60.0,54.0,30.10,ENE,60,16.0,17.0,83,-99.99,,,-99.99,,2013-11-15 11:00:00,
2013-11-15 05:42:00,60.0,54.0,30.10,ENE,60,16.0,17.0,83,-99.99,,,-99.99,,2013-11-15 11:42:00,
2013-11-15 05:52:00,60.0,54.0,30.10,ENE,60,16.0,17.0,83,-99.99,,,-99.99,,2013-11-15 11:52:00,
2013-11-15 06:00:00,59.0,56.0,30.10,ENE,70,15.0,17.0,87,-99.99,,,-99.99,,2013-11-15 12:00:00,
2013-11-15 06:41:00,59.0,56.0,30.10,ENE,70,15.0,17.0,87,-99.99,,,-99.99,,2013-11-15 12:41:00,
2013-11-15 06:52:00,59.0,56.0,30.10,ENE,70,15.0,17.0,87,-99.99,,,-99.99,,2013-11-15 12:52:00,
2013-11-15 07:00:00,59.0,57.0,30.09,ENE,70,17.0,20.0,91,-99.99,,,-99.99,,2013-11-15 13:00:00,
2013-11-15 07:42:00,59.0,57.0,30.09,ENE,70,17.0,20.0,91,-99.99,,,-99.99,,2013-11-15 13:42:00,
2013-11-15 07:52:00,59.0,57.0,30.09,ENE,70,17.0,20.0,91,-99.99,,,-99.99,,2013-11-15 13:52:00,
2013-11-15 08:00:00,60.0,59.0,30.10,ENE,70,17.0,18.0,94,-99.99,,,-99.99,,2013-11-15 14:00:00,
2013-11-15 08:41:00,60.0,59.0,30.10,ENE,70,17.0,18.0,94,-99.99,,,-99.99,,2013-11-15 14:41:00,
2013-11-15 08:52:00,60.0,59.0,30.10,ENE,70,17.0,18.0,94,-99.99,,,-99.99,,2013-11-15 14:52:00,
2013-11-15 09:00:00,61.0,60.0,30.10,East,80,16.0,17.0,95,-99.99,,,-99.99,,2013-11-15 15:00:00,
2013-11-15 09:43:00,61.0,60.0,30.10,East,80,16.0,17.0,95,-99.99,,,-99.99,,2013-11-15 15:43:00,
2013-11-15 09:53:00,61.0,60.0,30.10,East,80,16.0,17.0,95,-99.99,,,-99.99,,2013-11-15 15:53:00,
2013-11-15 10:00:00,62.0,61.0,30.10,East,80,11.0,13.0,95,-99.99,,,-99.99,,2013-11-15 16:00:00,
2013-11-15 10:42:00,62.0,61.0,30.10,East,80,11.0,13.0,95,-99.99,,,-99.99,,2013-11-15 16:42:00,
2013-11-15 10:53:00,62.0,61.0,30.10,East,80,11.0,13.0,95,-99.99,,,-99.99,,2013-11-15 16:53:00,
2013-11-15 11:00:00,67.0,65.0,30.07,ESE,110,18.0,21.0,93,-99.99,,,-99.99,,2013-11-15 17:00:00,
2013-11-15 11:42:00,67.0,65.0,30.07,ESE,110,18.0,21.0,93,-99.99,,,-99.99,,2013-11-15 17:42:00,
2013-11-15 11:52:00,67.0,65.0,30.07,ESE,110,18.0,21.0,93,-99.99,,,-99.99,,2013-11-15 17:52:00,
2013-11-15 12:00:00,67.0,66.0,30.05,East,90,13.0,14.0,95,-99.99,,,-99.99,,2013-11-15 18:00:00,
2013-11-15 12:41:00,67.0,66.0,30.05,East,90,13.0,14.0,95,-99.99,,,-99.99,,2013-11-15 18:41:00,
2013-11-15 12:52:00,67.0,66.0,30.05,East,90,13.0,14.0,95,-99.99,,,-99.99,,2013-11-15 18:52:00,
2013-11-15 13:00:00,66.0,65.0,30.02,East,80,5.0,6.0,96,-99.99,,,-99.99,,2013-11-15 19:00:00,
2013-11-15 13:42:00,66.0,65.0,30.02,East,80,5.0,6.0,96,-99.99,,,-99.99,,2013-11-15 19:42:00,
2013-11-15 13:52:00,66.0,65.0,30.02,East,80,5.0,6.0,96,-99.99,,,-99.99,,2013-11-15 19:52:00,
2013-11-15 14:00:00,68.0,67.0,30.01,ESE,120,9.0,9.0,95,-99.99,,,-99.99,,2013-11-15 20:00:00,
2013-11-15 14:42:00,68.0,67.0,30.01,ESE,120,9.0,9.0,95,-99.99,,,-99.99,,2013-11-15 20:42:00,
2013-11-15 14:52:00,68.0,67.0,30.01,ESE,120,9.0,9.0,95,-99.99,,,-99.99,,2013-11-15 20:52:00,
2013-11-15 15:00:00,68.0,66.0,30.00,SE,140,20.0,22.0,91,-99.99,,,-99.99,,2013-11-15 21:00:00,
2013-11-15 15:43:00,68.0,66.0,30.00,SE,140,20.0,22.0,91,-99.99,,,-99.99,,2013-11-15 21:43:00,
2013-11-15 15:54:00,68.0,66.0,30.00,SE,140,20.0,22.0,91,-99.99,,,-99.99,,2013-11-15 21:54:00,
2013-11-15 16:00:00,69.0,65.0,29.99,SE,140,13.0,14.0,87,-99.99,,,-99.99,,2013-11-15 22:00:00,
2013-11-15 16:43:00,69.0,65.0,29.99,SE,140,13.0,14.0,87,-99.99,,,-99.99,,2013-11-15 22:43:00,
2013-11-15 16:53:00,69.0,65.0,29.99,SE,140,13.0,14.0,87,-99.99,,,-99.99,,2013-11-15 22:53:00,
2013-11-15 17:00:00,68.0,66.0,30.00,SE,130,6.0,7.0,93,-99.99,,,-99.99,,2013-11-15 23:00:00,
2013-11-15 17:42:00,68.0,66.0,30.00,SE,130,6.0,7.0,93,-99.99,,,-99.99,,2013-11-15 23:42:00,
2013-11-15 17:52:00,68.0,66.0,30.00,SE,130,6.0,7.0,93,-99.99,,,-99.99,,2013-11-15 23:52:00,
2013-11-15 18:00:00,64.0,62.0,30.03,North,10,11.0,14.0,93,-99.99,,,-99.99,,2013-11-16 00:00:00,
2013-11-15 18:42:00,64.0,62.0,30.03,North,10,11.0,14.0,93,-99.99,,,-99.99,,2013-11-16 00:42:00,
2013-11-15 18:52:00,64.0,62.0,30.03,North,10,11.0,14.0,93,-99.99,,,-99.99,,2013-11-16 00:52:00,
2013-11-15 19:00:00,61.0,60.0,30.04,North,10,16.0,17.0,96,-99.99,,,-99.99,,2013-11-16 01:00:00,
2013-11-15 19:42:00,61.0,60.0,30.04,North,10,16.0,17.0,96,-99.99,,,-99.99,,2013-11-16 01:42:00,
2013-11-15 19:52:00,61.0,60.0,30.04,North,10,16.0,17.0,96,-99.99,,,-99.99,,2013-11-16 01:52:00,
2013-11-15 20:00:00,61.0,60.0,30.05,NW,310,5.0,6.0,98,-99.99,,,-99.99,,2013-11-16 02:00:00,
2013-11-15 20:42:00,61.0,60.0,30.05,NW,310,5.0,6.0,98,-99.99,,,-99.99,,2013-11-16 02:42:00,
2013-11-15 20:52:00,61.0,60.0,30.05,NW,310,5.0,6.0,98,-99.99,,,-99.99,,2013-11-16 02:52:00,
2013-11-15 21:00:00,65.0,64.0,30.05,ENE,60,11.0,13.0,96,-99.99,,,-99.99,,2013-11-16 03:00:00,
2013-11-15 21:44:00,65.0,64.0,30.05,ENE,60,11.0,13.0,96,-99.99,,,-99.99,,2013-11-16 03:44:00,
2013-11-15 21:54:00,65.0,64.0,30.05,ENE,60,11.0,13.0,96,-99.99,,,-99.99,,2013-11-16 03:54:00,
2013-11-15 22:00:00,66.0,65.0,30.06,ENE,70,6.0,6.0,96,-99.99,,,-99.99,,2013-11-16 04:00:00,
2013-11-15 22:43:00,66.0,65.0,30.06,ENE,70,6.0,6.0,96,-99.99,,,-99.99,,2013-11-16 04:43:00,
2013-11-15 22:53:00,66.0,65.0,30.06,ENE,70,6.0,6.0,96,-99.99,,,-99.99,,2013-11-16 04:53:00,
2013-11-15 23:00:00,66.0,65.0,30.06,ENE,70,10.0,10.0,95,-99.99,,,-99.99,,2013-11-16 05:00:00,
2013-11-15 23:43:00,66.0,65.0,30.06,ENE,70,10.0,10.0,95,-99.99,,,-99.99,,2013-11-16 05:43:00,
2013-11-15 23:52:00,66.0,65.0,30.06,ENE,70,10.0,10.0,95,-99.99,,,-99.99,,2013-11-16 05:52:00,